« Back
NWS Peachtree City, Ga » Text Product » CSG Terminal Aerodrome Forecast


Printer-friendly Version
Current Version              Previous Versions:   1  2  3  4  5  6  7  8  9  

Terminal Aerodrome Forecast

408
FTUS42 KFFC 201900 AAB
TAFCSG
TAF AMD
KCSG 201912Z 2019/2118 12011G16KT P6SM SCT040
     FM210000 06003KT P6SM SCT250
     FM211500 28006KT P6SM SKC=

USA.gov is the U.S. government's official web portal to all federal, state and local government web resources and services.